createdAt,value
2018-04-07T00:00:55.713Z,8.16
2018-04-07T00:01:56.129Z,8.19
2018-04-07T00:02:56.554Z,8.08
2018-04-07T00:03:56.981Z,8.15
2018-04-07T00:04:57.409Z,8.06
2018-04-07T00:05:57.837Z,8.10
2018-04-07T00:06:58.254Z,8.06
2018-04-07T00:07:58.679Z,8.03
2018-04-07T00:08:59.106Z,8.06
2018-04-07T00:09:59.532Z,8.10
2018-04-07T00:10:59.956Z,8.05
2018-04-07T00:12:00.380Z,8.01
2018-04-07T00:13:00.804Z,7.97
2018-04-07T00:14:01.230Z,7.98
2018-04-07T00:15:01.652Z,8.01
2018-04-07T00:16:02.078Z,8.01
2018-04-07T00:17:02.511Z,7.95
2018-04-07T00:18:02.928Z,7.94
2018-04-07T00:19:03.351Z,7.85
2018-04-07T00:20:03.776Z,7.88
2018-04-07T00:21:04.198Z,7.95
2018-04-07T00:22:04.621Z,7.85
2018-04-07T00:23:05.048Z,7.83
2018-04-07T00:24:05.472Z,7.82
2018-04-07T00:25:05.899Z,7.83
2018-04-07T00:26:06.325Z,7.79
2018-04-07T00:27:06.749Z,7.85
2018-04-07T00:28:07.169Z,7.70
2018-04-07T00:29:07.601Z,7.77
2018-04-07T00:30:08.024Z,7.63
2018-04-07T00:31:08.441Z,7.67
2018-04-07T00:32:08.869Z,7.69
2018-04-07T00:33:09.290Z,7.58
2018-04-07T00:34:09.712Z,7.57
2018-04-07T00:35:10.144Z,7.61
2018-04-07T00:36:10.567Z,7.50
2018-04-07T00:37:10.989Z,7.60
2018-04-07T00:38:11.413Z,7.61
2018-04-07T00:39:11.832Z,7.61
2018-04-07T00:40:12.263Z,7.61
2018-04-07T00:41:12.685Z,7.60
2018-04-07T00:42:13.112Z,7.56
2018-04-07T00:43:13.541Z,7.53
2018-04-07T00:44:13.958Z,7.56
2018-04-07T00:45:14.382Z,7.51
2018-04-07T00:46:14.807Z,7.50
2018-04-07T00:47:15.237Z,7.50
2018-04-07T00:48:15.656Z,7.47
2018-04-07T00:49:16.077Z,7.39
2018-04-07T00:50:16.501Z,7.36
2018-04-07T00:51:16.925Z,7.48
2018-04-07T00:52:17.347Z,7.35
2018-04-07T00:53:17.780Z,7.40
2018-04-07T00:54:18.203Z,7.43
2018-04-07T00:55:18.621Z,7.36
2018-04-07T00:56:19.049Z,7.43
2018-04-07T00:57:19.474Z,7.48
2018-04-07T00:58:19.899Z,7.32
2018-04-07T00:59:20.318Z,7.29
2018-04-07T01:00:20.743Z,7.38
2018-04-07T01:01:21.166Z,7.35
2018-04-07T01:02:21.607Z,7.31
2018-04-07T01:03:22.014Z,7.35
2018-04-07T01:04:22.441Z,7.42
2018-04-07T01:05:22.860Z,7.33
2018-04-07T01:06:23.287Z,7.31
2018-04-07T01:07:23.712Z,7.40
2018-04-07T01:08:24.132Z,7.40
2018-04-07T01:09:24.556Z,7.32
2018-04-07T01:10:24.980Z,7.42
2018-04-07T01:11:25.411Z,7.33
2018-04-07T01:12:25.829Z,7.38
2018-04-07T01:13:26.248Z,7.42
2018-04-07T01:14:26.680Z,7.33
2018-04-07T01:15:27.102Z,7.32
2018-04-07T01:16:27.521Z,7.42
2018-04-07T01:17:27.952Z,7.40
2018-04-07T01:18:28.371Z,7.32
2018-04-07T01:19:28.795Z,7.36
2018-04-07T01:20:29.240Z,7.36
2018-04-07T01:21:29.648Z,7.33
2018-04-07T01:22:30.068Z,7.33
2018-04-07T01:23:30.490Z,7.40
2018-04-07T01:24:30.915Z,7.32
2018-04-07T01:25:31.339Z,7.29
2018-04-07T01:26:31.788Z,7.33
2018-04-07T01:27:32.200Z,7.32
2018-04-07T01:28:32.609Z,7.29
2018-04-07T01:29:33.031Z,7.28
2018-04-07T01:30:33.466Z,7.24
2018-04-07T01:31:33.877Z,7.20
2018-04-07T01:32:34.317Z,7.23
2018-04-07T01:33:34.732Z,7.21
2018-04-07T01:34:35.153Z,7.25
2018-04-07T01:35:35.578Z,7.17
2018-04-07T01:36:35.998Z,7.23
2018-04-07T01:37:36.423Z,7.20
2018-04-07T01:38:36.847Z,7.24
2018-04-07T01:39:37.273Z,7.23
2018-04-07T01:40:37.700Z,7.23
2018-04-07T01:41:38.130Z,7.21
2018-04-07T01:42:38.543Z,7.20
2018-04-07T01:43:38.971Z,7.21
2018-04-07T01:44:39.386Z,7.13
2018-04-07T01:45:39.812Z,7.13
2018-04-07T01:46:40.236Z,7.15
2018-04-07T01:47:40.664Z,7.18
2018-04-07T01:48:41.083Z,7.03
2018-04-07T01:49:41.516Z,7.02
2018-04-07T01:50:41.932Z,7.02
2018-04-07T01:51:42.355Z,7.05
2018-04-07T01:52:42.776Z,7.10
2018-04-07T01:53:43.223Z,7.05
2018-04-07T01:54:43.646Z,7.02
2018-04-07T01:55:44.061Z,6.97
2018-04-07T01:56:44.471Z,6.99
2018-04-07T01:57:44.898Z,6.96
2018-04-07T01:58:45.317Z,7.06
2018-04-07T01:59:45.747Z,7.02
2018-04-07T02:00:46.162Z,6.95
2018-04-07T02:01:46.602Z,6.93
2018-04-07T02:02:47.015Z,6.93
2018-04-07T02:03:47.434Z,6.92
2018-04-07T02:04:47.862Z,6.89
2018-04-07T02:05:48.282Z,6.87
2018-04-07T02:06:48.709Z,6.89
2018-04-07T02:07:49.129Z,6.84
2018-04-07T02:08:49.549Z,6.81
2018-04-07T02:09:49.981Z,6.84
2018-04-07T02:10:50.401Z,6.79
2018-04-07T02:11:50.820Z,6.75
2018-04-07T02:12:51.248Z,6.84
2018-04-07T02:13:51.672Z,6.81
2018-04-07T02:14:52.090Z,6.81
2018-04-07T02:15:52.518Z,6.74
2018-04-07T02:16:52.938Z,6.74
2018-04-07T02:17:53.357Z,6.72
2018-04-07T02:18:53.794Z,6.75
2018-04-07T02:19:54.226Z,6.64
2018-04-07T02:20:54.632Z,6.69
2018-04-07T02:21:55.060Z,6.70
2018-04-07T02:22:55.477Z,6.72
2018-04-07T02:23:55.902Z,6.63
2018-04-07T02:24:56.330Z,6.69
2018-04-07T02:25:56.774Z,6.70
2018-04-07T02:26:57.178Z,6.70
2018-04-07T02:27:57.596Z,6.77
2018-04-07T02:28:58.013Z,6.74
2018-04-07T02:29:58.452Z,6.70
2018-04-07T02:30:58.864Z,6.63
2018-04-07T02:31:59.302Z,6.67
2018-04-07T02:32:59.729Z,6.69
2018-04-07T02:34:00.143Z,6.67
2018-04-07T02:35:00.561Z,6.74
2018-04-07T02:36:00.987Z,6.75
2018-04-07T02:37:01.403Z,6.64
2018-04-07T02:38:01.864Z,6.64
2018-04-07T02:39:02.253Z,6.69
2018-04-07T02:40:02.698Z,6.70
2018-04-07T02:41:03.107Z,6.62
2018-04-07T02:42:03.522Z,6.70
2018-04-07T02:43:03.950Z,6.62
2018-04-07T02:44:04.398Z,6.69
2018-04-07T02:45:04.800Z,6.74
2018-04-07T02:46:05.216Z,6.74
2018-04-07T02:47:05.636Z,6.74
2018-04-07T02:48:06.077Z,6.69
2018-04-07T02:49:06.531Z,6.74
2018-04-07T02:50:06.916Z,6.70
2018-04-07T02:51:07.342Z,6.72
2018-04-07T02:52:07.775Z,6.72
2018-04-07T02:53:08.180Z,6.77
2018-04-07T02:54:08.698Z,6.67
2018-04-07T02:55:09.027Z,6.67
2018-04-07T02:56:09.454Z,6.72
2018-04-07T02:57:09.887Z,6.72
2018-04-07T02:58:10.314Z,6.72
2018-04-07T02:59:10.715Z,6.69
2018-04-07T03:00:11.147Z,6.70
2018-04-07T03:01:11.563Z,6.74
2018-04-07T03:02:11.990Z,6.72
2018-04-07T03:03:12.414Z,6.81
2018-04-07T03:04:12.843Z,6.88
2018-04-07T03:05:13.259Z,6.81
2018-04-07T03:06:13.693Z,6.81
2018-04-07T03:07:14.118Z,6.79
2018-04-07T03:08:14.534Z,6.78
2018-04-07T03:09:14.963Z,6.85
2018-04-07T03:10:15.380Z,6.87
2018-04-07T03:11:15.799Z,6.82
2018-04-07T03:12:16.234Z,6.78
2018-04-07T03:13:16.653Z,6.81
2018-04-07T03:14:17.072Z,6.85
2018-04-07T03:15:17.603Z,6.84
2018-04-07T03:16:17.911Z,6.82
2018-04-07T03:17:18.338Z,6.87
2018-04-07T03:18:18.763Z,6.84
2018-04-07T03:19:19.182Z,6.84
2018-04-07T03:20:19.611Z,6.79
2018-04-07T03:21:20.033Z,6.81
2018-04-07T03:22:20.450Z,6.84
2018-04-07T03:23:20.876Z,6.82
2018-04-07T03:24:21.295Z,6.87
2018-04-07T03:25:21.734Z,6.84
2018-04-07T03:26:22.147Z,6.82
2018-04-07T03:27:22.566Z,6.84
2018-04-07T03:28:22.987Z,6.85
2018-04-07T03:29:23.418Z,6.79
2018-04-07T03:30:23.847Z,6.87
2018-04-07T03:31:24.262Z,6.87
2018-04-07T03:32:24.681Z,6.75
2018-04-07T03:33:25.103Z,6.84
2018-04-07T03:34:25.550Z,6.74
2018-04-07T03:35:25.958Z,6.77
2018-04-07T03:36:26.377Z,6.78
2018-04-07T03:37:26.809Z,6.77
2018-04-07T03:38:27.216Z,6.66
2018-04-07T03:39:27.644Z,6.77
2018-04-07T03:40:28.069Z,6.77
2018-04-07T03:41:28.496Z,6.62
2018-04-07T03:42:28.914Z,6.69
2018-04-07T03:43:29.333Z,6.60
2018-04-07T03:44:29.767Z,6.63
2018-04-07T03:45:30.184Z,6.70
2018-04-07T03:46:30.605Z,6.60
2018-04-07T03:47:31.035Z,6.66
2018-04-07T03:48:31.459Z,6.70
2018-04-07T03:49:31.875Z,6.66
2018-04-07T03:50:32.295Z,6.77
2018-04-07T03:51:32.727Z,6.74
2018-04-07T03:52:33.157Z,6.60
2018-04-07T03:53:33.586Z,6.67
2018-04-07T03:54:33.990Z,6.62
2018-04-07T03:55:34.411Z,6.66
2018-04-07T03:56:34.836Z,6.63
2018-04-07T03:57:35.257Z,6.62
2018-04-07T03:58:35.678Z,6.67
2018-04-07T03:59:36.103Z,6.63
2018-04-07T04:00:36.525Z,6.66
2018-04-07T04:01:36.950Z,6.60
2018-04-07T04:02:37.370Z,6.64
2018-04-07T04:03:37.798Z,6.63
2018-04-07T04:04:38.214Z,6.69
2018-04-07T04:05:38.643Z,6.70
2018-04-07T04:06:39.063Z,6.70
2018-04-07T04:07:39.490Z,6.74
2018-04-07T04:08:39.909Z,6.77
2018-04-07T04:09:40.340Z,6.67
2018-04-07T04:10:40.754Z,6.79
2018-04-07T04:11:41.174Z,6.74
2018-04-07T04:12:41.600Z,6.69
2018-04-07T04:13:42.029Z,6.70
2018-04-07T04:14:42.446Z,6.69
2018-04-07T04:15:42.871Z,6.74
2018-04-07T04:16:43.290Z,6.77
2018-04-07T04:17:43.712Z,6.81
2018-04-07T04:18:44.143Z,6.74
2018-04-07T04:19:44.559Z,6.79
2018-04-07T04:20:44.978Z,6.78
2018-04-07T04:21:45.405Z,6.78
2018-04-07T04:22:45.828Z,6.79
2018-04-07T04:23:46.254Z,6.75
2018-04-07T04:24:46.671Z,6.81
2018-04-07T04:25:47.106Z,6.81
2018-04-07T04:26:47.520Z,6.78
2018-04-07T04:27:47.937Z,6.81
2018-04-07T04:28:48.398Z,6.81
2018-04-07T04:29:48.785Z,6.78
2018-04-07T04:30:49.211Z,6.84
2018-04-07T04:31:49.635Z,6.87
2018-04-07T04:32:50.055Z,6.79
2018-04-07T04:33:50.477Z,6.84
2018-04-07T04:34:50.910Z,6.89
2018-04-07T04:35:51.326Z,6.82
2018-04-07T04:36:51.745Z,6.87
2018-04-07T04:37:52.169Z,6.87
2018-04-07T04:38:52.610Z,6.85
2018-04-07T04:39:53.073Z,6.84
2018-04-07T04:40:53.451Z,6.78
2018-04-07T04:41:53.864Z,6.89
2018-04-07T04:42:54.287Z,6.87
2018-04-07T04:43:54.715Z,6.79
2018-04-07T04:44:55.136Z,6.77
2018-04-07T04:45:55.564Z,6.87
2018-04-07T04:46:55.979Z,6.79
2018-04-07T04:47:56.397Z,6.89
2018-04-07T04:48:56.822Z,6.87
2018-04-07T04:49:57.245Z,6.89
2018-04-07T04:50:57.676Z,6.79
2018-04-07T04:51:58.092Z,6.81
2018-04-07T04:52:58.508Z,6.82
2018-04-07T04:53:58.932Z,6.84
2018-04-07T04:54:59.372Z,6.89
2018-04-07T04:55:59.779Z,6.88
2018-04-07T04:57:00.205Z,6.87
2018-04-07T04:58:00.629Z,6.92
2018-04-07T04:59:01.052Z,6.93
2018-04-07T05:00:01.470Z,6.95
2018-04-07T05:01:01.889Z,7.00
2018-04-07T05:02:02.326Z,7.07
2018-04-07T05:03:02.744Z,7.10
2018-04-07T05:04:03.163Z,7.07
2018-04-07T05:05:03.591Z,7.00
2018-04-07T05:06:04.012Z,7.11
2018-04-07T05:07:04.431Z,7.11
2018-04-07T05:08:04.858Z,7.13
2018-04-07T05:09:05.275Z,7.17
2018-04-07T05:10:05.702Z,7.17
2018-04-07T05:11:06.121Z,7.18
2018-04-07T05:12:06.551Z,7.15
2018-04-07T05:13:06.970Z,7.23
2018-04-07T05:14:07.392Z,7.21
2018-04-07T05:15:07.847Z,7.21
2018-04-07T05:16:08.239Z,7.18
2018-04-07T05:17:08.665Z,7.13
2018-04-07T05:18:09.095Z,7.18
2018-04-07T05:19:09.512Z,7.18
2018-04-07T05:20:09.928Z,7.18
2018-04-07T05:21:10.428Z,7.18
2018-04-07T05:22:10.802Z,7.28
2018-04-07T05:23:11.192Z,7.17
2018-04-07T05:24:11.623Z,7.21
2018-04-07T05:25:12.049Z,7.20
2018-04-07T05:26:12.500Z,7.17
2018-04-07T05:27:12.907Z,7.28
2018-04-07T05:28:13.319Z,7.25
2018-04-07T05:29:13.737Z,7.29
2018-04-07T05:30:14.166Z,7.33
2018-04-07T05:31:14.583Z,7.45
2018-04-07T05:32:15.021Z,7.40
2018-04-07T05:33:15.437Z,7.31
2018-04-07T05:34:15.853Z,7.31
2018-04-07T05:35:16.275Z,7.38
2018-04-07T05:36:16.713Z,7.47
2018-04-07T05:37:17.122Z,7.47
2018-04-07T05:38:17.544Z,7.51
2018-04-07T05:39:17.981Z,7.58
2018-04-07T05:40:18.390Z,7.63
2018-04-07T05:41:18.817Z,7.61
2018-04-07T05:42:19.238Z,7.69
2018-04-07T05:43:19.668Z,7.63
2018-04-07T05:44:20.082Z,7.63
2018-04-07T05:45:20.514Z,7.72
2018-04-07T05:46:20.930Z,7.60
2018-04-07T05:47:21.359Z,7.70
2018-04-07T05:48:21.776Z,7.63
2018-04-07T05:49:22.209Z,7.79
2018-04-07T05:50:22.646Z,7.69
2018-04-07T05:51:23.058Z,7.67
2018-04-07T05:52:23.475Z,7.66
2018-04-07T05:53:23.894Z,7.72
2018-04-07T05:54:24.326Z,7.79
2018-04-07T05:55:24.744Z,7.82
2018-04-07T05:56:25.168Z,7.69
2018-04-07T05:57:25.586Z,7.82
2018-04-07T05:58:26.020Z,7.76
2018-04-07T05:59:26.437Z,7.87
2018-04-07T06:00:26.905Z,7.82
2018-04-07T06:01:27.285Z,7.94
2018-04-07T06:02:27.712Z,8.01
2018-04-07T06:03:28.137Z,8.08
2018-04-07T06:04:28.584Z,8.06
2018-04-07T06:05:28.976Z,8.09
2018-04-07T06:06:29.413Z,8.26
2018-04-07T06:07:29.833Z,8.18
2018-04-07T06:08:30.254Z,8.28
2018-04-07T06:09:30.681Z,8.30
2018-04-07T06:10:31.111Z,8.34
2018-04-07T06:11:31.533Z,8.34
2018-04-07T06:12:31.951Z,8.36
2018-04-07T06:13:32.370Z,8.42
2018-04-07T06:14:32.798Z,8.46
2018-04-07T06:15:33.221Z,8.55
2018-04-07T06:16:33.653Z,8.55
2018-04-07T06:17:34.072Z,8.56
2018-04-07T06:18:34.492Z,8.58
2018-04-07T06:19:34.920Z,8.63
2018-04-07T06:20:35.343Z,8.71
2018-04-07T06:21:35.769Z,8.64
2018-04-07T06:22:36.195Z,8.71
2018-04-07T06:23:36.617Z,8.76
2018-04-07T06:24:37.044Z,8.81
2018-04-07T06:25:37.468Z,8.84
2018-04-07T06:26:37.895Z,8.81
2018-04-07T06:27:38.316Z,8.81
2018-04-07T06:28:38.774Z,8.81
2018-04-07T06:29:39.174Z,8.89
2018-04-07T06:30:39.590Z,8.89
2018-04-07T06:31:40.016Z,8.99
2018-04-07T06:32:40.444Z,8.91
2018-04-07T06:33:40.864Z,9.02
2018-04-07T06:34:41.291Z,9.04
2018-04-07T06:35:41.713Z,9.08
2018-04-07T06:36:42.174Z,9.16
2018-04-07T06:37:42.571Z,9.21
2018-04-07T06:38:43.003Z,9.21
2018-04-07T06:39:43.459Z,9.37
2018-04-07T06:40:43.850Z,9.31
2018-04-07T06:41:44.268Z,9.31
2018-04-07T06:42:44.693Z,9.31
2018-04-07T06:43:45.119Z,9.37
2018-04-07T06:44:45.539Z,9.31
2018-04-07T06:45:45.972Z,9.44
2018-04-07T06:46:46.404Z,9.46
2018-04-07T06:47:46.829Z,9.43
2018-04-07T06:48:47.245Z,9.48
2018-04-07T06:49:47.675Z,9.51
2018-04-07T06:50:48.103Z,9.50
2018-04-07T06:51:48.522Z,9.51
2018-04-07T06:52:48.949Z,9.62
2018-04-07T06:53:49.395Z,9.50
2018-04-07T06:54:49.800Z,9.54
2018-04-07T06:55:50.228Z,9.59
2018-04-07T06:56:50.653Z,9.61
2018-04-07T06:57:51.083Z,9.62
2018-04-07T06:58:51.502Z,9.59
2018-04-07T06:59:51.928Z,9.64
2018-04-07T07:00:52.359Z,9.55
2018-04-07T07:01:52.780Z,9.62
2018-04-07T07:02:53.219Z,9.55
2018-04-07T07:03:53.668Z,9.61
2018-04-07T07:04:54.057Z,9.65
2018-04-07T07:05:54.482Z,9.68
2018-04-07T07:06:54.921Z,9.69
2018-04-07T07:07:55.338Z,9.74
2018-04-07T07:08:55.762Z,9.76
2018-04-07T07:09:56.204Z,9.79
2018-04-07T07:10:56.612Z,9.95
2018-04-07T07:11:57.041Z,9.95
2018-04-07T07:12:57.465Z,9.98
2018-04-07T07:13:57.903Z,10.05
2018-04-07T07:14:58.321Z,10.10
2018-04-07T07:15:58.743Z,10.13
2018-04-07T07:16:59.196Z,10.23
2018-04-07T07:17:59.598Z,10.17
2018-04-07T07:19:00.035Z,10.20
2018-04-07T07:20:00.453Z,10.31
2018-04-07T07:21:00.897Z,10.26
2018-04-07T07:22:01.300Z,10.42
2018-04-07T07:23:01.723Z,10.41
2018-04-07T07:24:02.153Z,10.48
2018-04-07T07:25:02.583Z,10.51
2018-04-07T07:26:03.005Z,10.56
2018-04-07T07:27:03.432Z,10.59
2018-04-07T07:28:03.861Z,10.76
2018-04-07T07:29:04.283Z,10.75
2018-04-07T07:30:04.710Z,10.79
2018-04-07T07:31:05.151Z,10.99
2018-04-07T07:32:05.562Z,11.14
2018-04-07T07:33:05.992Z,11.08
2018-04-07T07:34:06.421Z,11.15
2018-04-07T07:35:06.851Z,11.18
2018-04-07T07:36:07.271Z,11.25
2018-04-07T07:37:07.704Z,11.41
2018-04-07T07:38:08.131Z,11.52
2018-04-07T07:39:08.555Z,11.52
2018-04-07T07:40:08.983Z,11.62
2018-04-07T07:41:09.416Z,11.83
2018-04-07T07:42:09.860Z,11.80
2018-04-07T07:43:10.269Z,11.90
2018-04-07T07:44:10.701Z,12.12
2018-04-07T07:45:12.108Z,12.21
2018-04-07T07:46:11.561Z,12.35
2018-04-07T07:47:11.981Z,12.60
2018-04-07T07:48:12.411Z,12.94
2018-04-07T07:49:12.852Z,13.20
2018-04-07T07:50:13.270Z,13.42
2018-04-07T07:51:13.704Z,13.52
2018-04-07T07:52:14.139Z,13.56
2018-04-07T07:53:14.555Z,13.62
2018-04-07T07:54:14.996Z,13.67
2018-04-07T07:55:15.423Z,13.83
2018-04-07T07:56:15.867Z,13.96
2018-04-07T07:57:16.292Z,14.05
2018-04-07T07:58:16.725Z,14.14
2018-04-07T07:59:17.207Z,14.35
2018-04-07T08:00:17.598Z,14.55
2018-04-07T08:01:18.036Z,14.66
2018-04-07T08:02:18.474Z,14.72
2018-04-07T08:03:18.898Z,14.62
2018-04-07T08:04:19.342Z,14.65
2018-04-07T08:05:19.780Z,14.73
2018-04-07T08:06:20.202Z,14.91
2018-04-07T08:07:20.643Z,14.81
2018-04-07T08:08:21.082Z,14.82
2018-04-07T08:09:21.517Z,14.92
2018-04-07T08:10:21.958Z,14.91
2018-04-07T08:11:22.400Z,14.96
2018-04-07T08:12:22.835Z,15.22
2018-04-07T08:13:23.269Z,15.28
2018-04-07T08:14:23.710Z,15.33
2018-04-07T08:15:24.150Z,15.49
2018-04-07T08:16:24.584Z,15.59
2018-04-07T08:17:25.029Z,15.92
2018-04-07T08:18:25.460Z,16.36
2018-04-07T08:19:25.894Z,16.56
2018-04-07T08:20:26.335Z,16.99
2018-04-07T08:21:26.775Z,16.99
2018-04-07T08:22:27.217Z,17.34
2018-04-07T08:23:27.654Z,17.60
2018-04-07T08:24:28.095Z,17.78
2018-04-07T08:25:28.540Z,17.79
2018-04-07T08:26:28.978Z,17.71
2018-04-07T08:27:29.432Z,18.50
2018-04-07T08:28:29.862Z,18.77
2018-04-07T08:29:30.308Z,18.44
2018-04-07T08:30:30.798Z,18.45
2018-04-07T08:31:31.204Z,17.95
2018-04-07T08:32:31.636Z,17.90
2018-04-07T08:33:32.091Z,18.07
2018-04-07T08:34:32.524Z,17.95
2018-04-07T08:35:32.972Z,17.63
2018-04-07T08:36:33.414Z,17.68
2018-04-07T08:37:33.903Z,17.36
2018-04-07T08:38:34.309Z,17.51
2018-04-07T08:39:34.777Z,17.56
2018-04-07T08:40:35.227Z,17.83
2018-04-07T08:41:35.642Z,18.31
2018-04-07T08:42:36.091Z,18.41
2018-04-07T08:43:36.550Z,18.58
2018-04-07T08:44:36.980Z,18.66
2018-04-07T08:45:37.418Z,18.34
2018-04-07T08:46:37.868Z,18.15
2018-04-07T08:47:38.313Z,18.53
2018-04-07T08:48:38.767Z,18.49
2018-04-07T08:49:39.207Z,18.89
2018-04-07T08:50:39.648Z,19.40
2018-04-07T08:51:40.142Z,19.58
2018-04-07T08:52:40.556Z,19.48
2018-04-07T08:53:40.988Z,19.33
2018-04-07T08:54:41.437Z,19.37
2018-04-07T08:55:41.879Z,19.34
2018-04-07T08:56:42.337Z,19.24
2018-04-07T08:57:42.771Z,19.21
2018-04-07T08:58:43.262Z,19.27
2018-04-07T08:59:43.663Z,19.73
2018-04-07T09:00:44.115Z,19.27
2018-04-07T09:01:44.560Z,19.37
2018-04-07T09:02:45.003Z,19.89
2018-04-07T09:03:45.455Z,20.04
2018-04-07T09:04:45.899Z,20.16
2018-04-07T09:05:46.352Z,20.07
2018-04-07T09:06:46.805Z,19.86
2018-04-07T09:07:47.234Z,19.69
2018-04-07T09:08:47.690Z,19.40
2018-04-07T09:09:48.129Z,19.15
2018-04-07T09:10:48.582Z,19.49
2018-04-07T09:11:49.021Z,19.47
2018-04-07T09:12:49.469Z,19.29
2018-04-07T09:13:49.912Z,19.26
2018-04-07T09:14:50.362Z,19.21
2018-04-07T09:15:50.816Z,19.77
2018-04-07T09:16:51.250Z,20.26
2018-04-07T09:17:51.698Z,20.31
2018-04-07T09:18:52.163Z,19.84
2018-04-07T09:19:52.592Z,20.19
2018-04-07T09:20:53.045Z,20.36
2018-04-07T09:21:53.485Z,19.94
2018-04-07T09:22:53.936Z,20.26
2018-04-07T09:23:54.377Z,20.41
2018-04-07T09:24:54.834Z,20.41
2018-04-07T09:25:55.286Z,20.99
2018-04-07T09:26:55.725Z,20.84
2018-04-07T09:27:56.196Z,20.74
2018-04-07T09:28:56.629Z,20.88
2018-04-07T09:29:57.076Z,20.78
2018-04-07T09:30:57.529Z,19.81
2018-04-07T09:31:57.979Z,21.24
2018-04-07T09:32:58.446Z,20.88
2018-04-07T09:33:58.884Z,21.27
2018-04-07T09:34:59.341Z,20.93
2018-04-07T09:35:59.778Z,20.88
2018-04-07T09:37:00.234Z,20.55
2018-04-07T09:38:00.676Z,20.34
2018-04-07T09:39:01.130Z,20.77
2018-04-07T09:40:01.590Z,21.43
2018-04-07T09:41:02.052Z,21.00
2018-04-07T09:42:02.507Z,20.84
2018-04-07T09:43:02.936Z,21.27
2018-04-07T09:44:03.410Z,20.69
2018-04-07T09:45:03.832Z,20.90
2018-04-07T09:46:04.294Z,20.77
2018-04-07T09:47:04.747Z,20.72
2018-04-07T09:48:05.188Z,21.25
2018-04-07T09:49:05.637Z,21.09
2018-04-07T09:50:06.099Z,21.00
2018-04-07T09:51:06.550Z,20.96
2018-04-07T09:52:07.001Z,21.33
2018-04-07T09:53:07.449Z,21.62
2018-04-07T09:54:07.894Z,21.91
2018-04-07T09:55:08.360Z,22.26
2018-04-07T09:56:08.807Z,21.24
2018-04-07T09:57:09.265Z,21.25
2018-04-07T09:58:09.713Z,21.73
2018-04-07T09:59:10.160Z,22.14
2018-04-07T10:00:10.625Z,21.00
2018-04-07T10:01:11.074Z,21.27
2018-04-07T10:02:11.526Z,21.50
2018-04-07T10:03:11.974Z,21.51
2018-04-07T10:04:12.445Z,20.74
2018-04-07T10:05:12.898Z,21.21
2018-04-07T10:06:13.339Z,21.43
2018-04-07T10:07:13.792Z,20.88
2018-04-07T10:08:14.260Z,20.16
2018-04-07T10:09:14.735Z,20.09
2018-04-07T10:10:15.158Z,20.75
2018-04-07T10:11:15.603Z,21.42
2018-04-07T10:12:16.067Z,21.96
2018-04-07T10:13:16.513Z,21.72
2018-04-07T10:14:16.976Z,21.72
2018-04-07T10:15:17.425Z,22.15
2018-04-07T10:16:17.871Z,22.81
2018-04-07T10:17:18.330Z,22.80
2018-04-07T10:18:18.787Z,22.75
2018-04-07T10:19:19.241Z,22.96
2018-04-07T10:20:19.697Z,22.29
2018-04-07T10:21:20.150Z,22.18
2018-04-07T10:22:20.602Z,22.38
2018-04-07T10:23:21.057Z,23.12
2018-04-07T10:24:21.510Z,22.73
2018-04-07T10:25:21.974Z,22.87
2018-04-07T10:26:22.426Z,23.03
2018-04-07T10:27:22.881Z,23.92
2018-04-07T10:28:23.346Z,24.13
2018-04-07T10:29:23.788Z,23.10
2018-04-07T10:30:24.252Z,23.55
2018-04-07T10:31:24.713Z,23.86
2018-04-07T10:32:25.169Z,24.33
2018-04-07T10:33:25.623Z,24.39
2018-04-07T10:34:26.073Z,24.57
2018-04-07T10:35:26.535Z,24.32
2018-04-07T10:36:26.999Z,23.12
2018-04-07T10:37:27.456Z,23.05
2018-04-07T10:38:27.919Z,23.00
2018-04-07T10:39:28.372Z,23.28
2018-04-07T10:40:28.827Z,23.51
2018-04-07T10:41:29.285Z,24.14
2018-04-07T10:42:29.747Z,23.84
2018-04-07T10:43:30.204Z,23.83
2018-04-07T10:44:30.669Z,23.86
2018-04-07T10:45:31.155Z,23.48
2018-04-07T10:46:31.581Z,23.15
2018-04-07T10:47:32.036Z,22.84
2018-04-07T10:48:32.514Z,22.96
2018-04-07T10:49:32.966Z,22.75
2018-04-07T10:50:33.414Z,22.93
2018-04-07T10:51:33.873Z,22.57
2018-04-07T10:52:34.392Z,22.62
2018-04-07T10:53:34.796Z,22.41
2018-04-07T10:54:35.246Z,22.62
2018-04-07T10:55:35.711Z,22.38
2018-04-07T10:56:36.168Z,22.20
2018-04-07T10:57:36.623Z,22.23
2018-04-07T10:58:37.086Z,22.22
2018-04-07T10:59:37.538Z,22.84
2018-04-07T11:00:38.009Z,22.30
2018-04-07T11:01:38.463Z,22.41
2018-04-07T11:02:38.914Z,21.93
2018-04-07T11:03:39.375Z,22.23
2018-04-07T11:04:39.833Z,22.62
2018-04-07T11:05:40.289Z,22.69
2018-04-07T11:06:40.749Z,22.75
2018-04-07T11:07:41.202Z,22.50
2018-04-07T11:08:41.662Z,22.88
2018-04-07T11:09:42.112Z,23.41
2018-04-07T11:10:42.616Z,23.41
2018-04-07T11:11:43.049Z,23.83
2018-04-07T11:12:43.490Z,23.99
2018-04-07T11:13:43.936Z,23.46
2018-04-07T11:14:44.394Z,23.06
2018-04-07T11:15:44.856Z,22.76
2018-04-07T11:16:45.313Z,22.93
2018-04-07T11:17:45.774Z,22.99
2018-04-07T11:18:46.219Z,23.69
2018-04-07T11:19:46.676Z,24.01
2018-04-07T11:20:47.139Z,24.48
2018-04-07T11:21:47.609Z,24.84
2018-04-07T11:22:48.058Z,24.06
2018-04-07T11:23:48.500Z,24.30
2018-04-07T11:24:48.970Z,24.28
2018-04-07T11:25:49.426Z,24.24
2018-04-07T11:26:49.886Z,23.43
2018-04-07T11:27:50.349Z,23.59
2018-04-07T11:28:50.805Z,22.94
2018-04-07T11:29:51.264Z,22.73
2018-04-07T11:30:51.718Z,22.62
2018-04-07T11:31:52.174Z,22.66
2018-04-07T11:32:52.638Z,22.73
2018-04-07T11:33:53.094Z,22.84
2018-04-07T11:34:53.549Z,22.91
2018-04-07T11:35:54.012Z,22.87
2018-04-07T11:36:54.469Z,23.03
2018-04-07T11:37:54.925Z,22.68
2018-04-07T11:38:55.380Z,22.60
2018-04-07T11:39:55.837Z,22.57
2018-04-07T11:40:56.294Z,22.25
2018-04-07T11:41:56.756Z,21.61
2018-04-07T11:42:57.291Z,21.03
2018-04-07T11:43:57.658Z,20.66
2018-04-07T11:44:58.179Z,20.40
2018-04-07T11:45:58.583Z,20.11
2018-04-07T11:46:59.028Z,19.82
2018-04-07T11:47:59.490Z,19.58
2018-04-07T11:48:59.922Z,19.45
2018-04-07T11:50:00.385Z,19.37
2018-04-07T11:51:00.831Z,19.26
2018-04-07T11:52:01.300Z,19.30
2018-04-07T11:53:01.747Z,19.21
2018-04-07T11:54:02.192Z,18.92
2018-04-07T11:55:02.674Z,19.00
2018-04-07T11:56:03.114Z,19.09
2018-04-07T11:57:03.521Z,18.86
2018-04-07T11:58:03.964Z,18.78
2018-04-07T11:59:04.410Z,18.78
2018-04-07T12:00:04.850Z,18.71
2018-04-07T12:01:05.301Z,18.74
2018-04-07T12:02:05.732Z,18.63
2018-04-07T12:03:06.177Z,18.74
2018-04-07T12:04:06.619Z,18.78
2018-04-07T12:05:07.043Z,18.88
2018-04-07T12:06:07.469Z,18.88
2018-04-07T12:07:07.936Z,18.99
2018-04-07T12:08:08.354Z,18.93
2018-04-07T12:09:08.820Z,18.98
2018-04-07T12:10:09.244Z,19.00
2018-04-07T12:11:09.691Z,18.93
2018-04-07T12:12:10.121Z,18.92
2018-04-07T12:13:11.348Z,19.04
2018-04-07T12:14:11.003Z,19.02
2018-04-07T12:15:11.454Z,19.15
2018-04-07T12:16:11.868Z,19.19
2018-04-07T12:17:12.326Z,19.16
2018-04-07T12:18:12.721Z,19.21
2018-04-07T12:19:13.175Z,19.19
2018-04-07T12:20:13.598Z,19.08
2018-04-07T12:21:14.052Z,19.19
2018-04-07T12:22:14.496Z,19.07
2018-04-07T12:23:14.984Z,19.24
2018-04-07T12:24:15.401Z,19.24
2018-04-07T12:25:15.906Z,19.29
2018-04-07T12:26:16.303Z,19.33
2018-04-07T12:27:16.710Z,19.30
2018-04-07T12:28:17.125Z,19.15
2018-04-07T12:29:17.564Z,19.26
2018-04-07T12:30:17.994Z,19.26
2018-04-07T12:31:18.433Z,19.14
2018-04-07T12:32:18.875Z,19.29
2018-04-07T12:33:19.375Z,19.26
2018-04-07T12:34:19.828Z,19.24
2018-04-07T12:35:20.197Z,19.30
2018-04-07T12:36:20.619Z,19.30
2018-04-07T12:37:21.112Z,19.45
2018-04-07T12:38:21.521Z,19.55
2018-04-07T12:39:21.926Z,19.48
2018-04-07T12:40:22.352Z,19.48
2018-04-07T12:41:22.799Z,19.52
2018-04-07T12:42:23.273Z,19.55
2018-04-07T12:43:23.662Z,19.45
2018-04-07T12:44:24.103Z,19.45
2018-04-07T12:45:24.564Z,19.51
2018-04-07T12:46:25.032Z,19.51
2018-04-07T12:47:25.434Z,19.45
2018-04-07T12:48:25.916Z,19.51
2018-04-07T12:49:26.326Z,19.54
2018-04-07T12:50:26.748Z,19.56
2018-04-07T12:51:27.171Z,19.58
2018-04-07T12:52:27.599Z,19.67
2018-04-07T12:53:28.060Z,19.67
2018-04-07T12:54:28.483Z,19.81
2018-04-07T12:55:28.935Z,19.85
2018-04-07T12:56:29.404Z,19.84
2018-04-07T12:57:29.855Z,19.84
2018-04-07T12:58:30.229Z,19.85
2018-04-07T12:59:30.705Z,19.86
2018-04-07T13:00:31.109Z,19.74
2018-04-07T13:01:31.553Z,19.82
2018-04-07T13:02:31.978Z,19.89
2018-04-07T13:03:32.466Z,19.89
2018-04-07T13:04:32.959Z,19.82
2018-04-07T13:05:33.305Z,19.88
2018-04-07T13:06:33.750Z,19.88
2018-04-07T13:07:34.176Z,19.88
2018-04-07T13:08:34.629Z,19.81
2018-04-07T13:09:35.058Z,19.82
2018-04-07T13:10:35.536Z,19.77
2018-04-07T13:11:35.920Z,20.00
2018-04-07T13:12:36.372Z,20.07